Time;durP1;ratioP1;P1;durP2;ratioP2;P2;SDS_P1;SDS_P2;PMS_P1;PMS_P2;Temp;Humidity;BMP_temperature;BMP_pressure;BME280_temperature;BME280_humidity;BME280_pressure;Samples;Min_cycle;Max_cycle;Signal;HPM_P1;HPM_P2
2022/03/25 00:00:58;;;;;;;34.40;22.60;;;7.40;99.90;;;7.82;66.30;-19993.13;5002574;28;20202;-54
2022/03/25 00:03:27;;;;;;;34.17;23.77;;;7.20;99.90;;;7.63;66.99;-19986.47;4991243;28;20220;-54
2022/03/25 00:05:55;;;;;;;35.47;23.70;;;7.00;99.90;;;7.38;67.97;-19978.28;4990414;28;20237;-56
2022/03/25 00:08:24;;;;;;;37.17;23.83;;;6.90;99.90;;;7.23;69.37;-19972.97;4997585;28;20324;-54
2022/03/25 00:10:52;;;;;;;34.07;22.97;;;6.70;99.90;;;7.16;69.93;-19970.75;5010245;28;20231;-54
2022/03/25 00:13:20;;;;;;;35.90;24.23;;;6.60;99.90;;;7.08;70.73;-19968.03;5010143;28;20233;-55
2022/03/25 00:15:48;;;;;;;38.33;25.13;;;6.50;99.90;;;7.03;71.60;-19966.31;5010982;28;20850;-55
2022/03/25 00:18:16;;;;;;;38.50;25.03;;;6.40;99.90;;;7.07;71.77;-19967.69;5010670;28;20304;-55
2022/03/25 00:20:45;;;;;;;37.30;24.37;;;6.30;99.90;;;7.13;71.23;-19969.56;5010147;28;20230;-51
2022/03/25 00:23:13;;;;;;;35.23;24.03;;;6.30;99.90;;;6.97;71.96;-19964.25;5009944;28;20258;-54
2022/03/25 00:25:42;;;;;;;35.43;25.03;;;6.30;99.90;;;6.83;72.83;-19959.47;5009772;28;20226;-56
2022/03/25 00:28:10;;;;;;;42.00;25.30;;;6.20;99.90;;;6.73;73.80;-19956.06;5009988;28;20227;-56
2022/03/25 00:30:38;;;;;;;34.17;25.03;;;6.10;99.90;;;6.67;74.71;-19954.00;5011189;28;20234;-57
2022/03/25 00:33:06;;;;;;;37.97;24.20;;;6.10;99.90;;;6.63;75.57;-19952.63;5009871;28;20251;-54
2022/03/25 00:35:34;;;;;;;36.13;24.60;;;6.00;99.90;;;6.85;75.63;-19960.00;5010117;28;20232;-56
2022/03/25 00:38:03;;;;;;;37.67;26.00;;;6.00;99.90;;;6.80;74.85;-19958.28;5010099;28;20624;-54
2022/03/25 00:40:32;;;;;;;34.27;24.73;;;6.00;99.90;;;6.70;75.29;-19954.84;5010088;28;20215;-57
2022/03/25 00:43:01;;;;;;;36.83;25.53;;;6.00;99.90;;;6.82;75.02;-19958.97;5009506;28;20208;-53
2022/03/25 00:45:31;;;;;;;37.07;24.70;;;6.00;99.90;;;6.94;74.47;-19963.25;5010164;28;20598;-53
2022/03/25 00:47:59;;;;;;;36.70;25.20;;;6.10;99.90;;;6.98;74.64;-19964.44;5009701;28;20231;-55
2022/03/25 00:50:28;;;;;;;35.03;24.97;;;6.10;99.90;;;7.06;73.96;-19967.34;5010191;28;20273;-56
2022/03/25 00:52:56;;;;;;;39.20;24.73;;;6.10;99.90;;;7.36;71.81;-19977.59;5009716;28;20227;-53
2022/03/25 00:55:24;;;;;;;35.27;24.97;;;6.20;99.90;;;7.42;71.60;-19979.47;5009693;28;20792;-54
2022/03/25 00:57:52;;;;;;;37.30;25.43;;;6.30;99.90;;;7.52;71.14;-19982.72;5009674;28;20292;-56
2022/03/25 01:00:22;;;;;;;39.40;25.53;;;6.50;99.90;;;7.54;72.05;-19983.41;5009071;28;20296;-54
2022/03/25 01:02:49;;;;;;;35.97;25.10;;;6.50;99.90;;;7.45;70.17;-19980.50;4993798;28;20240;-56
2022/03/25 01:05:18;;;;;;;41.77;25.20;;;6.50;99.90;;;7.62;69.27;-19986.13;4993881;28;20728;-54
2022/03/25 01:07:47;;;;;;;38.70;25.50;;;6.60;99.90;;;7.61;69.50;-19985.78;4995786;28;20718;-55
2022/03/25 01:10:15;;;;;;;36.30;24.37;;;6.60;99.90;;;7.51;69.10;-19982.53;5013511;28;20617;-55
2022/03/25 01:12:43;;;;;;;38.90;26.17;;;6.60;99.90;;;7.46;69.33;-19980.84;5014244;28;20304;-56
2022/03/25 01:15:11;;;;;;;37.43;25.77;;;6.60;99.90;;;7.42;69.40;-19979.63;5013481;28;20228;-55
2022/03/25 01:17:40;;;;;;;37.20;24.83;;;6.60;99.90;;;7.46;69.01;-19980.84;5013376;28;20678;-57
2022/03/25 01:20:10;;;;;;;39.13;25.20;;;6.60;99.90;;;7.32;69.55;-19976.22;5012904;28;20239;-55
2022/03/25 01:22:38;;;;;;;36.53;24.57;;;6.50;99.90;;;7.28;71.41;-19974.69;5013369;28;20231;-53
2022/03/25 01:25:08;;;;;;;41.67;25.50;;;6.50;99.90;;;7.14;70.98;-19970.06;5013504;28;20202;-53
2022/03/25 01:27:37;;;;;;;34.53;23.03;;;6.40;99.90;;;7.19;69.75;-19971.59;5013823;28;20188;-57
2022/03/25 01:30:07;;;;;;;35.53;23.57;;;6.30;99.90;;;7.15;70.04;-19970.41;5013312;28;20239;-55
2022/03/25 01:32:35;;;;;;;35.03;23.60;;;6.30;99.90;;;7.19;69.89;-19971.78;5012963;28;20529;-57
2022/03/25 01:35:09;;;;;;;34.63;22.67;;;6.30;99.90;;;7.22;69.05;-19972.63;5013258;28;20646;-55
2022/03/25 01:37:37;;;;;;;37.33;23.57;;;6.30;99.90;;;7.25;69.12;-19973.66;5013035;28;20224;-57
2022/03/25 01:40:09;;;;;;;35.83;22.97;;;6.30;99.90;;;7.16;69.71;-19970.75;5013278;28;20211;-57
2022/03/25 01:42:41;;;;;;;32.40;22.43;;;6.30;99.90;;;7.14;69.63;-19969.91;5013077;28;20222;-52
2022/03/25 01:45:12;;;;;;;34.33;22.83;;;6.30;99.90;;;7.15;69.50;-19970.25;5012911;28;20730;-54
2022/03/25 01:47:41;;;;;;;32.17;22.50;;;6.30;99.90;;;7.12;69.77;-19969.22;5012482;28;20238;-56
2022/03/25 01:50:21;;;;;;;33.80;22.10;;;6.20;99.90;;;7.08;70.29;-19967.84;5012614;28;20265;-55
2022/03/25 01:52:52;;;;;;;33.00;22.47;;;6.20;99.90;;;7.17;69.95;-19971.09;5012239;28;20238;-56
2022/03/25 01:55:26;;;;;;;36.30;22.77;;;6.20;99.90;;;7.17;70.08;-19971.09;5012434;28;20232;-56
2022/03/25 01:57:58;;;;;;;36.33;23.00;;;6.20;99.90;;;7.24;69.97;-19973.50;5012036;28;20183;-54
2022/03/25 02:00:29;;;;;;;37.00;22.83;;;6.20;99.90;;;7.05;70.61;-19966.81;5009531;28;20280;-52
2022/03/25 02:02:58;;;;;;;34.97;23.47;;;6.20;99.90;;;6.88;71.15;-19961.00;4992644;28;20314;-53
2022/03/25 02:05:27;;;;;;;35.30;23.83;;;6.10;99.90;;;6.86;71.82;-19960.34;4992820;28;20227;-54
2022/03/25 02:07:56;;;;;;;35.40;22.90;;;6.00;99.90;;;6.86;71.65;-19960.50;4995810;28;20586;-55
2022/03/25 02:10:24;;;;;;;35.87;24.10;;;6.00;99.90;;;7.08;70.93;-19968.03;5012566;28;20317;-52
2022/03/25 02:12:52;;;;;;;30.77;22.10;;;6.10;99.90;;;6.81;72.01;-19958.63;5011278;28;20258;-54
2022/03/25 02:15:31;;;;;;;29.30;21.40;;;6.00;99.90;;;6.63;72.77;-19952.47;5012721;28;20233;-55
2022/03/25 02:18:03;;;;;;;31.10;22.50;;;5.90;99.90;;;7.01;70.70;-19965.63;5011949;28;20227;-54
2022/03/25 02:20:34;;;;;;;33.97;22.33;;;6.00;99.90;;;7.04;70.19;-19966.47;5012024;28;20250;-59
2022/03/25 02:23:04;;;;;;;28.30;21.20;;;6.00;99.90;;;6.85;70.75;-19960.16;5011899;28;20251;-59
2022/03/25 02:25:33;;;;;;;35.87;23.03;;;6.00;99.90;;;6.89;70.85;-19961.53;5012156;28;20229;-52
2022/03/25 02:28:04;;;;;;;32.43;22.13;;;6.00;99.90;;;6.87;70.27;-19960.66;5011721;28;20300;-54
2022/03/25 02:30:36;;;;;;;29.57;21.07;;;6.00;99.90;;;6.43;71.16;-19945.63;5012407;28;20242;-56
2022/03/25 02:33:07;;;;;;;33.67;21.83;;;5.80;99.90;;;6.55;70.83;-19949.72;5011852;28;20327;-56
2022/03/25 02:35:41;;;;;;;34.07;21.50;;;5.70;99.90;;;6.93;69.57;-19962.72;5011743;28;20308;-52
2022/03/25 02:38:13;;;;;;;33.97;21.83;;;5.80;99.90;;;6.96;69.15;-19963.91;5011575;28;20239;-56
2022/03/25 02:40:42;;;;;;;31.80;20.30;;;5.90;99.90;;;6.89;69.21;-19961.53;5011852;28;20309;-53
2022/03/25 02:43:12;;;;;;;34.50;20.27;;;5.90;99.90;;;6.85;69.15;-19960.16;5011240;28;20549;-53
2022/03/25 02:45:41;;;;;;;29.73;19.80;;;5.90;99.90;;;6.57;70.02;-19950.59;5011940;28;20667;-57
2022/03/25 02:48:11;;;;;;;31.53;20.83;;;5.80;99.90;;;6.19;72.13;-19937.59;5011567;28;20232;-58
2022/03/25 02:50:39;;;;;;;27.77;20.13;;;5.60;99.90;;;6.09;73.09;-19934.19;5011689;28;20314;-55
2022/03/25 02:53:09;;;;;;;32.50;22.27;;;5.50;99.90;;;6.02;75.21;-19931.97;5011242;28;20241;-55
2022/03/25 02:55:37;;;;;;;31.70;20.57;;;5.30;99.90;;;5.88;75.71;-19927.19;5011210;28;20227;-57
2022/03/25 02:58:06;;;;;;;33.00;21.93;;;5.20;99.90;;;5.87;76.13;-19926.66;5011376;28;20209;-54
2022/03/25 03:00:35;;;;;;;33.10;21.60;;;5.10;99.90;;;6.09;74.09;-19934.19;5006904;28;20576;-59
2022/03/25 03:03:04;;;;;;;27.20;19.40;;;5.10;99.90;;;6.41;71.40;-19944.94;4991474;28;20690;-57
2022/03/25 03:05:33;;;;;;;29.73;19.03;;;5.30;99.90;;;6.29;71.74;-19940.84;4991450;28;20240;-59
2022/03/25 03:08:01;;;;;;;30.47;20.63;;;5.40;99.90;;;6.11;72.63;-19935.03;4995468;28;20744;-55
2022/03/25 03:10:32;;;;;;;30.67;20.47;;;5.30;99.90;;;5.97;73.18;-19930.25;5011089;28;20254;-51
2022/03/25 03:13:00;;;;;;;27.07;18.80;;;5.30;99.90;;;5.91;73.50;-19928.22;5011095;28;20226;-55
2022/03/25 03:15:28;;;;;;;33.90;20.77;;;5.10;99.90;;;5.77;74.50;-19923.41;5011291;28;20242;-53
2022/03/25 03:17:56;;;;;;;26.00;18.40;;;5.10;99.90;;;5.59;74.68;-19917.25;5011153;28;20320;-52
2022/03/25 03:20:26;;;;;;;32.73;19.83;;;5.00;99.90;;;5.58;74.79;-19916.91;5010924;28;20234;-54
2022/03/25 03:22:55;;;;;;;27.03;18.83;;;4.90;99.90;;;5.45;75.92;-19912.47;5011162;28;20234;-56
2022/03/25 03:25:24;;;;;;;32.00;19.07;;;4.80;99.90;;;5.24;78.03;-19905.31;5010461;28;20771;-55
2022/03/25 03:27:54;;;;;;;30.93;20.47;;;4.70;99.90;;;5.28;78.47;-19906.50;5010607;28;20316;-59
2022/03/25 03:30:22;;;;;;;29.13;18.63;;;4.60;99.90;;;5.64;75.63;-19918.78;5011119;28;20666;-58
2022/03/25 03:32:54;;;;;;;33.30;19.67;;;4.60;99.90;;;5.75;74.62;-19922.72;5010616;28;20310;-57
2022/03/25 03:35:23;;;;;;;30.57;19.77;;;4.70;99.90;;;5.45;76.25;-19912.47;5011175;28;20287;-58
2022/03/25 03:37:51;;;;;;;33.37;19.70;;;4.70;99.90;;;5.59;76.44;-19917.09;5011006;28;20316;-53
2022/03/25 03:40:19;;;;;;;27.43;19.10;;;4.70;99.90;;;5.31;76.85;-19907.69;5010740;28;20234;-58
2022/03/25 03:42:48;;;;;;;30.53;19.17;;;4.60;99.90;;;5.28;76.64;-19906.50;5011060;28;20200;-56
2022/03/25 03:45:17;;;;;;;28.27;19.13;;;4.50;99.90;;;4.92;78.84;-19894.53;5010970;28;20221;-54
2022/03/25 03:47:46;;;;;;;28.33;19.13;;;4.40;99.90;;;4.74;79.97;-19888.38;5010543;28;20230;-55
2022/03/25 03:50:17;;;;;;;30.53;19.40;;;4.30;99.90;;;4.86;79.25;-19892.47;5010365;28;20315;-55
2022/03/25 03:52:46;;;;;;;28.93;17.93;;;4.20;99.90;;;4.83;79.31;-19891.44;5010556;28;20232;-55
2022/03/25 03:55:14;;;;;;;26.97;18.13;;;4.10;99.90;;;5.01;78.70;-19897.25;5010607;28;20237;-55
2022/03/25 03:57:43;;;;;;;32.07;18.90;;;4.10;99.90;;;4.90;79.75;-19893.84;5010891;28;20245;-54
2022/03/25 04:00:14;;;;;;;27.10;18.33;;;4.10;99.90;;;4.87;79.73;-19892.66;5008318;28;20235;-54
2022/03/25 04:02:45;;;;;;;32.10;18.33;;;4.10;99.90;;;5.13;77.97;-19901.53;4990613;28;20312;-56
2022/03/25 04:05:14;;;;;;;27.70;18.47;;;4.20;99.90;;;4.85;78.43;-19892.13;4990379;28;20303;-54
2022/03/25 04:07:44;;;;;;;29.23;18.73;;;4.20;99.90;;;5.07;77.44;-19899.31;4991919;28;20238;-55
2022/03/25 04:10:12;;;;;;;29.30;18.83;;;4.30;99.90;;;5.26;76.81;-19905.81;5010185;28;20230;-54
2022/03/25 04:12:41;;;;;;;31.37;17.97;;;4.30;99.90;;;5.26;76.09;-19905.81;5010701;28;20320;-55
2022/03/25 04:15:12;;;;;;;27.40;18.03;;;4.30;99.90;;;5.02;77.60;-19897.78;5009879;28;20605;-51
2022/03/25 04:17:44;;;;;;;26.73;18.60;;;4.30;99.90;;;5.12;77.02;-19901.03;5010160;28;20225;-54
2022/03/25 04:20:15;;;;;;;28.73;17.33;;;4.30;99.90;;;5.31;75.70;-19907.69;5009795;28;20330;-54
2022/03/25 04:22:45;;;;;;;29.83;18.70;;;4.40;99.90;;;5.47;74.90;-19912.97;5010306;28;20225;-55
2022/03/25 04:25:14;;;;;;;28.70;18.87;;;4.40;99.90;;;5.44;74.45;-19912.13;5009761;28;20225;-54
2022/03/25 04:27:50;;;;;;;28.23;17.40;;;4.40;99.90;;;5.18;75.81;-19903.06;5010162;28;20214;-57
2022/03/25 04:30:21;;;;;;;28.93;17.40;;;4.30;99.90;;;5.13;76.33;-19901.38;5010448;28;20300;-54
2022/03/25 04:32:52;;;;;;;31.30;18.43;;;4.30;99.90;;;5.11;76.84;-19900.84;5009782;28;20697;-53
2022/03/25 04:35:21;;;;;;;27.00;18.37;;;4.20;99.90;;;4.82;78.11;-19890.94;5012987;28;20659;-55
2022/03/25 04:37:49;;;;;;;27.50;18.10;;;4.10;99.90;;;4.88;78.71;-19893.16;5016427;28;20363;-55
2022/03/25 04:40:20;;;;;;;35.10;19.40;;;4.10;99.90;;;4.97;78.40;-19896.22;5016293;28;20226;-55
2022/03/25 04:42:51;;;;;;;28.07;18.73;;;4.10;99.90;;;5.10;77.61;-19900.50;5016949;28;20304;-53
2022/03/25 04:45:20;;;;;;;27.67;17.93;;;4.10;99.90;;;4.77;79.00;-19889.22;5016572;28;20228;-54
2022/03/25 04:47:50;;;;;;;29.60;17.83;;;4.00;99.90;;;4.87;79.30;-19892.66;5016375;28;20602;-52
2022/03/25 04:50:18;;;;;;;29.43;18.43;;;4.00;99.90;;;5.04;78.85;-19898.47;5016237;28;20309;-54
2022/03/25 04:52:47;;;;;;;31.20;18.67;;;4.00;99.90;;;4.99;78.53;-19896.91;5016436;28;20279;-54
2022/03/25 04:55:17;;;;;;;31.93;19.20;;;4.00;99.90;;;5.01;78.99;-19897.25;5016042;28;20252;-54
2022/03/25 04:57:46;;;;;;;30.30;18.43;;;4.10;99.90;;;4.86;78.98;-19892.31;5016657;28;20256;-55
2022/03/25 05:00:16;;;;;;;31.47;19.23;;;4.00;99.90;;;4.84;79.29;-19891.63;5014612;28;20304;-55
2022/03/25 05:02:45;;;;;;;29.50;18.23;;;4.00;99.90;;;4.73;80.33;-19887.88;4996888;28;20638;-53
2022/03/25 05:05:15;;;;;;;29.47;19.27;;;3.90;99.90;;;4.72;81.19;-19887.69;5007859;28;20239;-54
2022/03/25 05:07:45;;;;;;;26.93;18.13;;;3.90;99.90;;;4.73;81.06;-19888.03;5016420;28;20318;-58
2022/03/25 05:10:15;;;;;;;28.23;18.00;;;3.80;99.90;;;4.80;80.21;-19890.25;5016262;28;20306;-55
2022/03/25 05:12:45;;;;;;;26.87;18.87;;;3.90;99.90;;;4.71;80.93;-19887.34;5016567;28;20286;-54
2022/03/25 05:15:14;;;;;;;29.33;18.70;;;3.80;99.90;;;4.77;80.59;-19889.41;5015945;28;20257;-53
2022/03/25 05:17:47;;;;;;;27.50;18.67;;;3.90;99.90;;;4.70;80.92;-19887.00;5015936;28;20610;-55
2022/03/25 05:20:18;;;;;;;29.90;18.93;;;3.80;99.90;;;4.56;82.02;-19882.22;5016273;28;20340;-55
2022/03/25 05:22:48;;;;;;;27.63;18.60;;;3.80;99.90;;;4.44;82.63;-19878.13;5016297;28;20237;-56
2022/03/25 05:25:17;;;;;;;31.27;19.40;;;3.80;99.90;;;4.72;82.09;-19887.50;5016129;28;20246;-57
2022/03/25 05:27:48;;;;;;;27.63;17.73;;;3.80;99.90;;;4.60;82.42;-19883.59;5016256;28;20209;-55
2022/03/25 05:30:20;;;;;;;26.97;18.20;;;3.80;99.90;;;4.56;83.01;-19882.22;5016349;28;20230;-56
2022/03/25 05:32:48;;;;;;;28.40;18.63;;;3.80;99.90;;;4.54;83.87;-19881.53;5015998;28;20323;-54
2022/03/25 05:35:20;;;;;;;31.40;17.67;;;3.80;99.90;;;4.76;82.76;-19888.88;5016268;28;20256;-53
2022/03/25 05:37:49;;;;;;;25.90;18.27;;;3.80;99.90;;;4.75;83.24;-19888.53;5016024;28;20300;-55
2022/03/25 05:40:20;;;;;;;34.37;19.27;;;3.90;99.90;;;4.64;83.57;-19884.78;5016078;28;20232;-56
2022/03/25 05:42:49;;;;;;;30.40;18.63;;;3.90;99.90;;;4.57;83.94;-19882.38;5016068;28;20285;-53
2022/03/25 05:45:19;;;;;;;30.80;18.93;;;3.90;99.90;;;4.66;83.26;-19885.47;5016733;28;20211;-55
2022/03/25 05:47:49;;;;;;;31.67;17.47;;;3.90;99.90;;;4.85;82.07;-19892.13;5011749;28;20236;-55
2022/03/25 05:50:19;;;;;;;31.40;19.47;;;4.00;99.90;;;4.94;81.17;-19895.03;5012978;28;20315;-55
2022/03/25 05:52:48;;;;;;;27.07;17.10;;;4.10;99.90;;;4.95;81.16;-19895.56;5012797;28;20623;-55
2022/03/25 05:55:18;;;;;;;27.83;17.80;;;4.20;99.90;;;5.19;79.85;-19903.59;5012737;28;20311;-58
2022/03/25 05:57:47;;;;;;;27.57;17.63;;;4.30;99.90;;;5.28;79.36;-19906.50;5012778;28;20279;-56
2022/03/25 06:00:17;;;;;;;29.10;17.60;;;4.40;99.90;;;5.11;80.19;-19900.84;5012448;28;20211;-57
2022/03/25 06:02:46;;;;;;;26.33;16.97;;;4.40;99.90;;;5.20;79.95;-19903.94;5012265;28;20312;-55
2022/03/25 06:05:14;;;;;;;29.17;18.00;;;4.50;99.90;;;5.32;78.75;-19907.84;5011939;28;20234;-55
2022/03/25 06:07:46;;;;;;;28.93;17.87;;;4.60;99.90;;;5.97;75.55;-19930.09;5012146;28;20302;-55
2022/03/25 06:10:15;;;;;;;28.90;17.57;;;4.70;99.90;;;6.00;75.00;-19931.13;5013212;28;20223;-53
2022/03/25 06:12:44;;;;;;;27.23;17.63;;;4.90;99.90;;;5.94;75.20;-19929.06;5013078;28;20630;-55
2022/03/25 06:15:15;;;;;;;30.30;17.23;;;4.90;99.90;;;5.90;75.14;-19927.69;5013027;28;20320;-54
2022/03/25 06:17:45;;;;;;;30.23;17.70;;;5.00;99.90;;;5.92;75.58;-19928.38;5012548;28;20244;-54
2022/03/25 06:20:17;;;;;;;28.30;18.30;;;5.00;99.90;;;5.92;74.64;-19928.53;5012817;28;20234;-56
2022/03/25 06:22:49;;;;;;;27.17;16.77;;;5.10;99.90;;;5.88;74.85;-19927.19;5012997;28;20236;-55
2022/03/25 06:25:18;;;;;;;25.77;16.80;;;5.10;99.90;;;5.90;74.46;-19927.69;5012388;28;20232;-56
2022/03/25 06:27:49;;;;;;;24.20;16.60;;;5.10;99.90;;;5.86;74.97;-19926.31;5013025;28;20268;-56
2022/03/25 06:30:19;;;;;;;26.60;17.07;;;5.20;99.90;;;5.94;74.88;-19929.22;5012905;28;20219;-54
2022/03/25 06:32:47;;;;;;;26.43;17.10;;;5.20;99.90;;;5.95;75.06;-19929.41;5012312;28;20234;-56
2022/03/25 06:35:15;;;;;;;28.43;18.03;;;5.20;99.90;;;6.01;74.73;-19931.44;5012296;28;20231;-57
2022/03/25 06:37:44;;;;;;;27.30;17.70;;;5.30;99.90;;;6.09;74.50;-19934.34;5012477;28;20268;-55
2022/03/25 06:40:15;;;;;;;26.53;17.30;;;5.40;99.90;;;6.18;74.09;-19937.25;5012456;28;20233;-56
2022/03/25 06:42:44;;;;;;;30.37;18.40;;;5.40;99.90;;;6.32;73.18;-19941.88;5012818;28;20898;-56
2022/03/25 06:45:14;;;;;;;26.47;17.67;;;5.50;99.90;;;6.38;72.48;-19944.09;5011950;28;20294;-55
2022/03/25 06:47:43;;;;;;;25.93;17.53;;;5.60;99.90;;;6.58;71.38;-19950.94;5012011;28;20246;-56
2022/03/25 06:50:16;;;;;;;28.10;17.33;;;5.70;99.90;;;6.91;69.24;-19962.03;5012378;28;20587;-51
2022/03/25 06:52:46;;;;;;;27.73;18.13;;;5.90;99.90;;;6.77;70.33;-19957.25;5012160;28;20359;-55
2022/03/25 06:55:18;;;;;;;27.00;18.03;;;5.90;99.90;;;6.84;69.90;-19959.66;5011869;28;20230;-55
2022/03/25 06:57:50;;;;;;;29.13;18.10;;;6.00;99.90;;;6.85;70.05;-19960.16;5011829;28;20259;-54
2022/03/25 07:00:19;;;;;;;26.17;18.00;;;6.10;99.90;;;7.36;67.72;-19977.41;5009835;28;20561;-57
2022/03/25 07:02:49;;;;;;;25.53;18.20;;;6.20;99.90;;;7.21;68.52;-19972.47;4992246;28;20321;-56
2022/03/25 07:05:18;;;;;;;28.30;17.57;;;6.30;99.90;;;7.19;69.17;-19971.78;4992132;28;20232;-54
2022/03/25 07:07:47;;;;;;;26.27;17.63;;;6.40;99.90;;;7.28;69.19;-19974.84;4994177;28;20225;-52
2022/03/25 07:10:22;;;;;;;26.67;18.50;;;6.50;99.90;;;7.59;66.46;-19985.28;5011974;28;20226;-54
2022/03/25 07:12:51;;;;;;;24.13;17.60;;;6.60;99.90;;;7.69;65.59;-19988.53;5012089;28;20185;-55
2022/03/25 07:15:20;;;;;;;25.27;17.43;;;6.70;99.90;;;7.64;66.12;-19987.00;5012444;28;20687;-53
2022/03/25 07:17:48;;;;;;;28.47;18.10;;;6.80;99.90;;;7.86;65.63;-19994.34;5011907;28;20324;-57
2022/03/25 07:20:18;;;;;;;27.27;18.03;;;6.80;99.90;;;8.03;63.97;-20000.31;5012188;28;20243;-54
2022/03/25 07:22:49;;;;;;;29.43;18.83;;;7.00;99.90;;;7.92;64.75;-19996.38;5011885;28;20225;-54
2022/03/25 07:25:20;;;;;;;28.67;18.17;;;6.90;99.90;;;8.09;64.59;-20002.38;5011974;28;20308;-51
2022/03/25 07:27:49;;;;;;;29.37;19.53;;;7.10;99.90;;;8.21;64.92;-20006.47;5012175;28;20190;-54
2022/03/25 07:30:18;;;;;;;25.73;18.50;;;7.20;99.90;;;8.28;64.92;-20008.69;5012055;28;20252;-51
2022/03/25 07:32:47;;;;;;;31.87;21.17;;;7.30;99.90;;;8.50;64.61;-20016.22;5011799;28;20312;-57
2022/03/25 07:35:16;;;;;;;33.20;19.93;;;7.50;99.90;;;8.64;63.81;-20021.00;5011792;28;20273;-56
2022/03/25 07:37:46;;;;;;;27.27;19.10;;;7.50;99.90;;;8.74;63.87;-20024.41;5011604;28;20241;-55
2022/03/25 07:40:15;;;;;;;28.60;19.67;;;7.70;99.90;;;9.02;62.50;-20033.97;5011529;28;20696;-53
2022/03/25 07:42:46;;;;;;;33.23;20.13;;;7.80;99.90;;;9.07;61.88;-20035.50;5011885;28;20198;-54
2022/03/25 07:45:15;;;;;;;31.30;19.33;;;7.90;99.90;;;9.09;61.70;-20036.19;5012164;28;20267;-53
2022/03/25 07:47:46;;;;;;;29.33;19.63;;;8.00;99.90;;;9.13;61.96;-20037.56;5011232;28;20247;-54
2022/03/25 07:50:18;;;;;;;33.03;21.40;;;8.20;99.90;;;9.26;61.44;-20042.00;5010753;28;20232;-54
2022/03/25 07:52:47;;;;;;;28.60;19.23;;;8.30;99.90;;;9.36;61.40;-20045.59;5010652;28;20221;-54
2022/03/25 07:55:18;;;;;;;27.67;19.23;;;8.40;99.90;;;9.56;61.21;-20052.25;5010451;28;20249;-55
2022/03/25 07:57:49;;;;;;;28.97;20.70;;;8.50;99.90;;;9.71;60.56;-20057.38;5010956;28;20240;-53
2022/03/25 08:00:19;;;;;;;28.97;20.20;;;8.60;99.90;;;9.92;59.52;-20064.56;5008297;28;20298;-55
2022/03/25 08:02:51;;;;;;;30.57;21.70;;;8.70;99.90;;;10.02;58.60;-20067.97;4991736;28;20262;-52
2022/03/25 08:05:20;;;;;;;31.57;20.97;;;8.90;99.90;;;10.13;58.64;-20071.56;4990837;28;20286;-52
2022/03/25 08:07:52;;;;;;;35.10;22.43;;;9.00;99.90;;;10.23;57.71;-20075.16;4993311;28;20311;-53
2022/03/25 08:10:23;;;;;;;31.47;20.90;;;9.20;99.90;;;10.38;57.91;-20080.09;5009902;28;20228;-50
2022/03/25 08:12:54;;;;;;;28.57;19.93;;;9.30;99.90;;;10.52;56.39;-20085.06;5010521;28;20183;-55
2022/03/25 08:15:23;;;;;;;32.67;20.13;;;9.40;99.90;;;10.64;55.93;-20088.97;5010932;28;20207;-57
2022/03/25 08:17:56;;;;;;;31.80;20.97;;;9.50;99.90;;;10.68;56.23;-20090.34;5010362;28;20231;-50
2022/03/25 08:20:28;;;;;;;27.70;18.67;;;9.60;99.90;;;10.85;55.75;-20096.16;5010210;28;20314;-53
2022/03/25 08:22:59;;;;;;;34.70;21.13;;;9.70;99.90;;;11.22;54.18;-20108.63;5010531;28;20634;-57
2022/03/25 08:28:16;;;;;;;32.93;21.63;;;10.00;99.90;;;11.33;54.34;-20112.56;5009649;28;20729;-53
2022/03/25 08:30:47;;;;;;;29.10;20.43;;;10.10;99.90;;;11.22;55.10;-20108.63;5011224;28;20278;-56
2022/03/25 08:33:16;;;;;;;29.50;20.00;;;10.10;99.90;;;11.28;55.75;-20110.84;5011163;28;20285;-55
2022/03/25 08:35:47;;;;;;;34.10;21.77;;;10.10;99.90;;;11.32;55.74;-20112.22;5010125;28;20227;-54
2022/03/25 08:38:15;;;;;;;31.90;21.03;;;10.10;99.90;;;11.37;55.23;-20113.75;5010106;28;20657;-55
2022/03/25 08:40:44;;;;;;;33.60;21.93;;;10.20;99.90;;;11.62;54.11;-20122.28;5010818;28;20308;-54
2022/03/25 08:43:33;;;;;;;30.73;22.63;;;10.30;99.90;;;11.61;53.91;-20121.94;5010868;28;20296;-54
2022/03/25 08:46:03;;;;;;;32.40;22.33;;;10.40;99.90;;;11.71;52.46;-20125.38;5010887;28;20203;-53
2022/03/25 08:48:32;;;;;;;29.37;21.67;;;10.50;99.90;;;11.86;52.75;-20130.66;5010207;28;20203;-53
2022/03/25 08:51:00;;;;;;;29.87;21.70;;;10.60;99.90;;;11.82;53.25;-20129.13;5009960;28;20769;-56
2022/03/25 08:53:29;;;;;;;29.93;20.90;;;10.60;99.90;;;12.01;53.70;-20135.59;5010623;28;20236;-55
2022/03/25 08:56:01;;;;;;;30.10;21.50;;;10.70;99.90;;;12.02;53.79;-20135.97;5010086;28;20265;-57
2022/03/25 08:58:29;;;;;;;36.27;21.87;;;10.80;99.90;;;12.15;54.17;-20140.56;5010646;28;20226;-54
2022/03/25 09:01:03;;;;;;;30.47;21.07;;;10.90;99.90;;;12.39;53.48;-20148.59;5001706;28;20289;-56
2022/03/25 09:03:32;;;;;;;30.77;21.47;;;11.00;99.90;;;12.63;53.78;-20156.63;4992255;28;20188;-56
2022/03/25 09:06:04;;;;;;;32.07;21.60;;;11.20;99.90;;;12.66;52.92;-20157.63;5003525;28;20245;-55
2022/03/25 09:08:38;;;;;;;34.50;21.73;;;11.30;99.90;;;12.52;53.06;-20152.84;5006104;28;20187;-56
2022/03/25 09:11:07;;;;;;;30.87;21.20;;;11.40;99.90;;;12.79;51.31;-20162.06;4990506;28;20230;-54
2022/03/25 09:13:35;;;;;;;30.67;20.73;;;11.50;99.90;;;12.62;51.83;-20156.28;4990482;28;20318;-56
2022/03/25 09:16:05;;;;;;;31.67;20.73;;;11.50;99.90;;;12.63;52.40;-20156.78;4990490;28;20231;-56
2022/03/25 09:18:34;;;;;;;30.53;20.50;;;11.40;99.90;;;12.85;51.79;-20164.13;5005806;28;20226;-55
2022/03/25 09:21:02;;;;;;;29.83;19.90;;;11.50;99.90;;;12.98;51.50;-20168.56;5011894;28;20293;-56
2022/03/25 09:23:30;;;;;;;35.97;21.50;;;11.60;99.90;;;13.04;51.28;-20170.78;5014317;28;20762;-55
2022/03/25 09:26:00;;;;;;;31.30;21.57;;;11.70;99.90;;;13.22;50.36;-20176.75;4994034;28;20306;-55
2022/03/25 09:28:29;;;;;;;33.03;21.57;;;11.90;99.90;;;13.34;49.46;-20181.03;4994032;28;20231;-57
2022/03/25 09:30:57;;;;;;;31.07;20.13;;;12.00;99.90;;;13.63;47.18;-20190.75;4994134;28;20231;-57
2022/03/25 09:33:27;;;;;;;27.77;19.13;;;12.20;99.90;;;13.80;45.69;-20196.56;4994325;28;20263;-58
2022/03/25 09:35:57;;;;;;;27.80;18.53;;;12.40;99.90;;;13.66;45.43;-20191.78;5000604;28;20286;-52
2022/03/25 09:38:25;;;;;;;30.93;19.23;;;12.30;99.90;;;13.78;45.03;-20195.72;5013605;28;20245;-56
2022/03/25 09:41:03;;;;;;;29.27;20.10;;;12.50;99.90;;;13.76;45.34;-20195.19;5013263;28;20214;-57
2022/03/25 09:43:31;;;;;;;27.57;17.23;;;12.50;99.90;;;13.82;44.43;-20197.25;5013407;28;20265;-55
2022/03/25 09:45:59;;;;;;;29.43;18.00;;;12.50;99.90;;;13.84;43.67;-20197.75;5013638;28;20285;-55
2022/03/25 09:48:29;;;;;;;25.83;18.07;;;12.50;99.90;;;14.02;43.78;-20203.91;5013423;28;20310;-55
2022/03/25 09:51:17;;;;;;;24.73;16.90;;;12.70;99.90;;;14.27;41.32;-20212.63;5013716;28;20231;-58
2022/03/25 09:53:46;;;;;;;23.63;16.23;;;12.90;99.90;;;14.10;41.90;-20206.63;5014064;28;20207;-57
2022/03/25 09:56:16;;;;;;;26.37;15.70;;;12.90;99.90;;;14.25;39.35;-20211.94;5012978;28;20309;-55
2022/03/25 09:58:44;;;;;;;20.77;15.13;;;12.90;99.90;;;14.45;37.75;-20218.75;5013233;28;20229;-56
2022/03/25 10:01:12;;;;;;;26.50;15.80;;;13.00;99.90;;;14.40;38.98;-20217.06;5013812;28;20230;-56
2022/03/25 10:03:42;;;;;;;22.00;14.40;;;13.10;99.90;;;14.36;37.09;-20215.69;5013304;28;20227;-58
2022/03/25 10:06:12;;;;;;;20.23;14.13;;;13.10;99.90;;;14.48;37.26;-20219.59;5013164;28;20214;-59
2022/03/25 10:08:54;;;;;;;23.77;14.50;;;13.20;99.90;;;14.53;38.18;-20221.31;5013653;28;20197;-60
2022/03/25 10:11:26;;;;;;;23.30;15.57;;;13.30;99.90;;;14.75;38.98;-20228.66;5013908;28;20264;-59
2022/03/25 10:14:18;;;;;;;24.50;16.43;;;13.40;99.90;;;14.87;39.85;-20232.91;5012835;28;20313;-57
2022/03/25 10:16:49;;;;;;;17.98;13.40;;;13.50;99.90;;;14.91;36.83;-20234.13;5012668;28;20274;-57
2022/03/25 10:19:21;;;;;;;24.40;14.43;;;13.50;99.90;;;14.96;36.96;-20235.81;5013153;28;20238;-59
2022/03/25 10:21:55;;;;;;;22.27;14.13;;;13.60;99.90;;;15.03;36.76;-20238.22;5013012;28;20411;-61
2022/03/25 10:24:40;;;;;;;18.73;12.83;;;13.70;99.90;;;14.91;35.60;-20234.13;5012739;28;20651;-61